Time;durP1;ratioP1;P1;durP2;ratioP2;P2;SDS_P1;SDS_P2;PMS_P1;PMS_P2;Temp;Humidity;BMP_temperature;BMP_pressure;BME280_temperature;BME280_humidity;BME280_pressure;Samples;Min_cycle;Max_cycle;Signal;HPM_P1;HPM_P2
2021/06/23 00:02:18;;;;;;;18.03;3.93;;;;;;;21.50;63.10;99461.97;130130;1090;24036;-64
2021/06/23 00:04:46;;;;;;;12.55;4.00;;;;;;;21.41;63.37;99475.06;129963;1090;113901;-63
2021/06/23 00:07:15;;;;;;;16.70;4.35;;;;;;;21.34;63.63;99468.41;130157;1089;22619;-64
2021/06/23 00:09:44;;;;;;;22.68;4.60;;;;;;;21.25;64.11;99470.38;129950;1093;113945;-64
2021/06/23 00:12:16;;;;;;;8.08;3.95;;;;;;;21.17;64.50;99477.55;130120;1090;22563;-64
2021/06/23 00:14:45;;;;;;;21.90;5.65;;;;;;;21.07;64.80;99475.10;130090;1090;23419;-64
2021/06/23 00:17:14;;;;;;;23.38;4.13;;;;;;;20.97;65.03;99467.95;130006;1090;114166;-64
2021/06/23 00:19:43;;;;;;;15.45;4.70;;;;;;;20.90;65.40;99472.38;130105;1089;22598;-63
2021/06/23 00:22:11;;;;;;;20.48;4.88;;;;;;;20.82;65.66;99462.92;129991;1090;114036;-63
2021/06/23 00:24:40;;;;;;;14.28;4.48;;;;;;;20.74;66.20;99469.30;130072;1092;22999;-64
2021/06/23 00:27:09;;;;;;;15.23;4.10;;;;;;;20.65;66.28;99466.51;130042;1090;114285;-63
2021/06/23 00:29:37;;;;;;;16.65;4.55;;;;;;;20.59;66.53;99473.36;130083;1089;22597;-64
2021/06/23 00:32:10;;;;;;;13.45;4.00;;;;;;;20.54;66.86;99467.16;130129;1091;22609;-64
2021/06/23 00:34:40;;;;;;;12.15;4.98;;;;;;;20.50;66.76;99469.77;130028;1090;114565;-63
2021/06/23 00:37:09;;;;;;;14.50;4.95;;;;;;;20.45;66.94;99467.98;130121;1090;22658;-67
2021/06/23 00:39:37;;;;;;;10.90;3.43;;;;;;;20.42;67.21;99459.52;130016;1090;114416;-67
2021/06/23 00:42:08;;;;;;;18.60;4.38;;;;;;;20.40;67.23;99464.55;130104;1090;23416;-67
2021/06/23 00:44:40;;;;;;;15.50;4.50;;;;;;;20.38;67.22;99464.05;130124;1090;23399;-67
2021/06/23 00:47:09;;;;;;;11.75;4.30;;;;;;;20.40;67.27;99461.78;129961;1090;113826;-67
2021/06/23 00:49:37;;;;;;;13.93;4.13;;;;;;;20.44;67.46;99463.59;130080;1090;22636;-67
2021/06/23 00:52:20;;;;;;;13.70;4.13;;;;;;;20.50;67.36;99461.45;130001;1090;114010;-67
2021/06/23 00:54:51;;;;;;;13.53;4.30;;;;;;;20.54;67.32;99467.98;130113;1090;22573;-67
2021/06/23 00:57:30;;;;;;;11.45;4.20;;;;;;;20.54;67.21;99465.21;129943;1090;113777;-67
2021/06/23 01:00:00;;;;;;;14.20;4.65;;;;;;;20.54;67.37;99462.44;129992;1090;23160;-67
2021/06/23 01:03:44;;;;;;;15.80;5.53;;;;;;;20.59;66.88;99455.94;125484;1092;22925;-66
2021/06/23 01:06:14;;;;;;;16.33;5.00;;;;;;;20.63;66.69;99463.25;129765;1093;24429;-63
2021/06/23 01:08:42;;;;;;;12.00;3.35;;;;;;;20.68;66.46;99452.02;129807;1093;22628;-63
2021/06/23 01:11:10;;;;;;;11.30;4.35;;;;;;;20.74;66.50;99450.72;129669;1093;113863;-63
2021/06/23 01:14:00;;;;;;;12.85;5.08;;;;;;;20.79;66.27;99450.54;129753;1093;23347;-63
2021/06/23 01:16:30;;;;;;;16.18;5.38;;;;;;;20.86;65.75;99452.83;129691;1093;113578;-63
2021/06/23 01:19:00;;;;;;;19.57;3.97;;;;;;;20.94;65.81;99453.94;129809;1092;22541;-64
2021/06/23 01:21:33;;;;;;;14.43;3.80;;;;;;;20.99;65.80;99453.78;129697;1092;113829;-64
2021/06/23 01:24:02;;;;;;;13.60;4.18;;;;;;;21.05;65.17;99466.33;129814;1093;23598;-64
2021/06/23 01:26:31;;;;;;;8.15;4.15;;;;;;;21.10;65.01;99457.83;129777;1092;22559;-64
2021/06/23 01:29:00;;;;;;;15.75;3.68;;;;;;;21.15;65.03;99457.66;129648;1093;113869;-64
2021/06/23 01:31:48;;;;;;;14.28;3.85;;;;;;;21.23;64.77;99459.62;129810;1093;22552;-64
2021/06/23 01:34:17;;;;;;;12.88;4.38;;;;;;;21.29;64.55;99449.99;129643;1093;113853;-64
2021/06/23 01:36:45;;;;;;;15.75;4.38;;;;;;;21.35;64.35;99462.52;129816;1093;22558;-66
2021/06/23 01:39:14;;;;;;;16.78;4.48;;;;;;;21.42;64.12;99453.70;129625;1093;113953;-66
2021/06/23 01:41:47;;;;;;;11.08;4.08;;;;;;;21.47;63.92;99459.89;129758;1093;22590;-66
2021/06/23 01:44:18;;;;;;;14.08;4.33;;;;;;;21.52;64.02;99456.91;129769;1093;23033;-66
2021/06/23 01:46:46;;;;;;;15.88;3.98;;;;;;;21.57;63.72;99455.11;129723;1093;113728;-66
2021/06/23 01:49:26;;;;;;;15.25;4.30;;;;;;;21.58;63.57;99452.02;129771;1093;22510;-66
2021/06/23 01:51:54;;;;;;;9.63;4.65;;;;;;;21.61;63.71;99453.31;129686;1093;114690;-66
2021/06/23 01:54:23;;;;;;;12.78;3.93;;;;;;;21.61;63.71;99444.99;129745;1092;22552;-66
2021/06/23 01:56:51;;;;;;;16.03;4.33;;;;;;;21.61;63.42;99451.35;129744;1093;114152;-65
2021/06/23 01:59:20;;;;;;;13.40;3.95;;;;;;;21.61;63.51;99450.54;129715;1093;22548;-66
2021/06/23 02:02:24;;;;;;;10.63;4.30;;;;;;;21.62;63.45;99455.75;129788;1093;23437;-66
2021/06/23 02:05:11;;;;;;;8.63;3.75;;;;;;;21.63;63.53;99460.16;129637;1093;113756;-66
2021/06/23 02:07:59;;;;;;;12.93;4.05;;;;;;;21.65;63.43;99457.84;129775;1096;22625;-66
2021/06/23 02:10:52;;;;;;;10.48;3.98;;;;;;;21.65;63.32;99457.02;129619;1092;113889;-66
2021/06/23 02:14:21;;;;;;;15.70;4.68;;;;;;;21.65;63.29;99455.06;129634;1093;22573;-66
2021/06/23 02:16:56;;;;;;;7.83;4.10;;;;;;;21.66;63.38;99458.66;129698;1093;113831;-66
2021/06/23 02:19:27;;;;;;;12.28;3.95;;;;;;;21.67;63.24;99460.28;129767;1093;22555;-66
2021/06/23 02:22:15;;;;;;;11.20;3.33;;;;;;;21.68;62.98;99461.91;129697;1093;113757;-66
2021/06/23 02:24:47;;;;;;;11.43;3.77;;;;;;;21.72;62.95;99460.11;129739;1093;22727;-66
2021/06/23 02:27:23;;;;;;;8.85;3.88;;;;;;;21.73;62.71;99465.32;129657;1094;114967;-66
2021/06/23 02:29:53;;;;;;;11.80;3.73;;;;;;;21.76;62.62;99455.53;129728;1093;23247;-66
2021/06/23 02:32:27;;;;;;;13.13;3.45;;;;;;;21.79;62.47;99466.75;129744;1093;22562;-66
2021/06/23 02:34:58;;;;;;;12.80;4.00;;;;;;;21.84;62.28;99462.98;129653;1093;114463;-66
2021/06/23 02:37:35;;;;;;;11.85;3.83;;;;;;;21.88;62.09;99461.98;129755;1093;23108;-66
2021/06/23 02:40:06;;;;;;;10.65;4.03;;;;;;;21.92;62.04;99462.14;129617;1093;114081;-66
2021/06/23 02:42:37;;;;;;;10.35;3.68;;;;;;;21.96;62.02;99462.26;129794;1092;22705;-66
2021/06/23 02:45:08;;;;;;;13.38;3.65;;;;;;;21.99;61.99;99467.14;129622;1093;113926;-66
2021/06/23 02:47:38;;;;;;;9.50;4.35;;;;;;;21.99;62.05;99464.38;129783;1093;22772;-66
2021/06/23 02:50:16;;;;;;;10.35;4.08;;;;;;;22.01;62.03;99464.88;129753;1093;22594;-66
2021/06/23 02:53:10;;;;;;;10.00;4.03;;;;;;;22.06;62.14;99476.61;129680;1093;114592;-66
2021/06/23 02:55:39;;;;;;;11.13;3.98;;;;;;;22.10;62.64;99471.19;129728;1093;22598;-66
2021/06/23 02:58:07;;;;;;;12.28;3.85;;;;;;;22.13;63.63;99473.30;129640;1092;114153;-66
2021/06/23 03:00:36;;;;;;;8.00;4.45;;;;;;;22.12;64.63;99469.70;129725;1093;23677;-66
2021/06/23 03:03:06;;;;;;;9.98;4.33;;;;;;;22.13;64.96;99473.30;129686;1093;114632;-66
2021/06/23 03:05:35;;;;;;;9.45;3.65;;;;;;;22.12;65.39;99468.89;129766;1093;22555;-66
2021/06/23 03:08:04;;;;;;;8.05;3.95;;;;;;;22.12;64.18;99478.03;129804;1093;22637;-66
2021/06/23 03:10:40;;;;;;;35.03;5.40;;;;;;;22.14;65.00;99469.38;129447;1093;113140;-66
2021/06/23 03:13:08;;;;;;;14.85;4.50;;;;;;;22.17;65.66;99460.38;129760;1092;22572;-65
2021/06/23 03:15:55;;;;;;;11.30;3.90;;;;;;;22.19;65.21;99461.67;129680;1093;115138;-63
2021/06/23 03:18:29;;;;;;;11.43;3.98;;;;;;;22.23;64.45;99454.28;129788;1093;23574;-63
2021/06/23 03:20:57;;;;;;;16.35;3.95;;;;;;;22.28;64.90;99458.83;129722;1093;114015;-63
2021/06/23 03:23:26;;;;;;;11.30;3.80;;;;;;;22.34;65.18;99457.50;129701;1093;22635;-63
2021/06/23 03:25:57;;;;;;;12.05;3.40;;;;;;;22.40;64.87;99455.31;129769;1093;23948;-63
2021/06/23 03:28:25;;;;;;;9.15;3.73;;;;;;;22.46;64.36;99465.08;129672;1092;114192;-63
2021/06/23 03:30:57;;;;;;;12.40;3.25;;;;;;;22.52;63.95;99458.97;129789;1094;23426;-63
2021/06/23 03:33:25;;;;;;;13.03;4.08;;;;;;;22.61;64.48;99461.69;129647;1093;114248;-63
2021/06/23 03:36:22;;;;;;;10.40;3.53;;;;;;;22.70;64.08;99467.98;129717;1093;22534;-63
2021/06/23 03:38:51;;;;;;;11.18;3.93;;;;;;;22.77;63.63;99471.06;129637;1093;113285;-63
2021/06/23 03:41:20;;;;;;;11.13;3.93;;;;;;;22.84;63.30;99464.95;129836;1093;22570;-63
2021/06/23 03:43:48;;;;;;;8.63;3.50;;;;;;;22.90;63.24;99466.38;129797;1093;22640;-64
2021/06/23 03:46:18;;;;;;;9.43;4.25;;;;;;;22.97;62.94;99465.80;129676;1092;113656;-66
2021/06/23 03:48:46;;;;;;;7.73;3.23;;;;;;;23.04;62.89;99469.67;129783;1093;22567;-66
2021/06/23 03:51:19;;;;;;;11.98;3.53;;;;;;;23.09;62.39;99472.22;129637;1093;114008;-66
2021/06/23 03:53:47;;;;;;;11.83;3.70;;;;;;;23.13;61.94;99473.16;129770;1093;22551;-66
2021/06/23 03:56:17;;;;;;;6.53;3.38;;;;;;;23.18;61.54;99477.70;129838;1092;22566;-65
2021/06/23 03:58:45;;;;;;;13.95;3.65;;;;;;;23.21;61.56;99483.40;129643;1092;113630;-66
2021/06/23 04:01:14;;;;;;;24.48;4.33;;;;;;;23.25;61.42;99477.94;129796;1092;22541;-66
2021/06/23 04:04:09;;;;;;;7.80;3.25;;;;;;;23.29;60.84;99470.55;129624;1093;114342;-66
2021/06/23 04:06:41;;;;;;;16.68;3.53;;;;;;;23.35;60.09;99462.81;129782;1093;23199;-65
2021/06/23 04:09:12;;;;;;;6.60;3.40;;;;;;;23.41;59.55;99466.98;129686;1092;114966;-66
2021/06/23 04:11:43;;;;;;;8.43;3.10;;;;;;;23.47;59.63;99455.30;129802;1092;22562;-66
2021/06/23 04:14:12;;;;;;;6.60;3.13;;;;;;;23.56;60.28;99460.78;129758;1093;22565;-66
2021/06/23 04:16:43;;;;;;;11.65;3.10;;;;;;;23.66;60.16;99467.88;126707;1096;114515;-65
2021/06/23 04:19:13;;;;;;;13.03;3.20;;;;;;;23.74;59.42;99464.16;129701;1093;23475;-66
2021/06/23 04:21:49;;;;;;;9.38;2.85;;;;;;;23.82;58.94;99466.01;129689;1093;113823;-66
2021/06/23 04:24:18;;;;;;;5.38;2.60;;;;;;;23.90;58.38;99463.13;129743;1093;23437;-66
2021/06/23 04:26:47;;;;;;;9.83;2.68;;;;;;;23.99;57.95;99463.00;129775;1094;22587;-67
2021/06/23 04:29:18;;;;;;;13.40;2.90;;;;;;;24.07;57.04;99464.05;129661;1093;113726;-66
2021/06/23 04:31:47;;;;;;;13.25;3.33;;;;;;;24.14;56.78;99464.27;129785;1093;22569;-66
2021/06/23 04:34:17;;;;;;;9.65;2.88;;;;;;;24.19;56.48;99462.06;129649;1093;114146;-66
2021/06/23 04:36:47;;;;;;;13.63;3.53;;;;;;;24.26;55.80;99459.52;129757;1093;22604;-66
2021/06/23 04:39:16;;;;;;;15.18;3.70;;;;;;;24.34;55.22;99465.33;129638;1093;114181;-66
2021/06/23 04:42:01;;;;;;;8.75;2.55;;;;;;;24.41;55.38;99454.39;129775;1093;22915;-66
2021/06/23 04:44:30;;;;;;;6.95;2.80;;;;;;;24.47;54.85;99456.59;129717;1092;22577;-66
2021/06/23 04:47:00;;;;;;;8.23;3.15;;;;;;;24.53;54.58;99457.14;129646;1094;113571;-66
2021/06/23 04:49:31;;;;;;;4.80;2.83;;;;;;;24.59;53.74;99455.73;129790;1093;23081;-66
2021/06/23 04:52:14;;;;;;;9.37;3.23;;;;;;;24.67;53.00;99455.58;129660;1093;113613;-66
2021/06/23 04:54:42;;;;;;;12.50;2.48;;;;;;;24.74;53.35;99454.19;129776;1093;23523;-66
2021/06/23 04:57:11;;;;;;;9.18;2.68;;;;;;;24.79;53.11;99445.58;129685;1093;113990;-66
2021/06/23 04:59:39;;;;;;;8.08;3.23;;;;;;;24.86;52.92;99452.16;129791;1093;22565;-66
2021/06/23 05:02:08;;;;;;;8.75;3.15;;;;;;;24.95;53.11;99457.63;129765;1093;22603;-66
2021/06/23 05:04:38;;;;;;;9.20;3.23;;;;;;;25.03;52.68;99459.44;129697;1093;113582;-66
2021/06/23 05:07:07;;;;;;;5.58;2.88;;;;;;;25.10;52.15;99453.26;129793;1093;22629;-66
2021/06/23 05:09:37;;;;;;;11.15;3.08;;;;;;;25.17;51.54;99456.23;129655;1094;113787;-66
2021/06/23 05:12:06;;;;;;;5.48;2.60;;;;;;;25.22;52.07;99462.37;129699;1093;22556;-66
2021/06/23 05:14:36;;;;;;;11.18;3.20;;;;;;;25.31;51.43;99459.40;129721;1093;22576;-66
2021/06/23 05:17:05;;;;;;;13.53;3.68;;;;;;;25.40;51.45;99462.81;129628;1092;114302;-66
2021/06/23 05:19:35;;;;;;;8.90;2.73;;;;;;;25.50;51.74;99464.29;129748;1093;22533;-66
2021/06/23 05:22:04;;;;;;;7.55;2.85;;;;;;;25.59;51.52;99471.30;129658;1092;114057;-66
2021/06/23 05:24:33;;;;;;;13.45;3.45;;;;;;;25.70;52.21;99471.60;129730;1093;23126;-66
2021/06/23 05:27:02;;;;;;;8.60;3.20;;;;;;;25.83;51.69;99475.11;129660;1093;114055;-63
2021/06/23 05:29:30;;;;;;;12.15;3.43;;;;;;;25.97;50.81;99465.09;129780;1092;22546;-65
2021/06/23 05:31:58;;;;;;;11.23;2.80;;;;;;;26.08;51.25;99462.59;129737;1093;22578;-66
2021/06/23 05:34:28;;;;;;;15.90;3.48;;;;;;;26.19;51.50;99460.03;129683;1093;116782;-65
2021/06/23 05:36:57;;;;;;;11.98;3.35;;;;;;;26.29;51.29;99462.28;129723;1091;23514;-65
2021/06/23 05:39:25;;;;;;;10.48;3.15;;;;;;;26.36;50.34;99465.26;129701;1093;114132;-66
2021/06/23 05:41:59;;;;;;;11.48;3.28;;;;;;;26.40;49.99;99460.56;129736;1093;23208;-65
2021/06/23 05:44:28;;;;;;;13.95;3.35;;;;;;;26.44;50.51;99453.05;129785;1093;22559;-65
2021/06/23 05:46:57;;;;;;;8.47;3.17;;;;;;;26.48;50.64;99444.76;129606;1093;114196;-65
2021/06/23 05:49:28;;;;;;;14.20;3.38;;;;;;;26.47;49.43;99448.72;129800;1093;22984;-63
2021/06/23 05:51:57;;;;;;;16.50;3.13;;;;;;;26.40;49.46;99441.02;129662;1092;113968;-65
2021/06/23 05:54:25;;;;;;;12.00;6.03;;;;;;;26.33;49.46;99436.06;129718;1093;22609;-65
2021/06/23 05:56:53;;;;;;;22.18;4.68;;;;;;;26.27;50.09;99431.08;126419;1093;22731;-67
2021/06/23 05:59:23;;;;;;;11.13;3.53;;;;;;;26.20;50.58;99434.53;129658;1093;113787;-67
2021/06/23 06:01:51;;;;;;;12.75;6.23;;;;;;;26.18;50.46;99422.92;129803;1092;22557;-67
2021/06/23 06:04:19;;;;;;;11.45;3.35;;;;;;;26.16;50.55;99428.05;129634;1093;113970;-67
2021/06/23 06:06:49;;;;;;;13.23;3.28;;;;;;;26.17;50.00;99423.28;129781;1092;22536;-67
2021/06/23 06:09:17;;;;;;;7.00;3.25;;;;;;;26.18;50.22;99422.92;129648;1092;114010;-67
2021/06/23 06:11:50;;;;;;;9.88;3.80;;;;;;;26.19;50.46;99421.74;129765;1093;23421;-66
2021/06/23 06:14:18;;;;;;;11.50;3.38;;;;;;;26.23;50.67;99425.44;129756;1093;22578;-67
2021/06/23 06:16:48;;;;;;;11.65;3.53;;;;;;;26.28;50.88;99407.56;129706;1092;113960;-63
2021/06/23 06:19:17;;;;;;;7.83;4.03;;;;;;;26.33;50.79;99412.91;129738;1092;23390;-65
2021/06/23 06:21:47;;;;;;;18.20;5.05;;;;;;;26.39;50.55;99414.25;129697;1093;113943;-66
2021/06/23 06:24:15;;;;;;;16.18;6.70;;;;;;;26.44;51.10;99413.94;129735;1093;22639;-66
2021/06/23 06:26:43;;;;;;;16.93;5.20;;;;;;;26.52;51.46;99409.33;126868;1092;28364;-66
2021/06/23 06:29:11;;;;;;;7.33;3.57;;;;;;;26.61;51.24;99404.31;125025;1093;114002;-67
2021/06/23 06:31:42;;;;;;;8.43;3.35;;;;;;;26.69;50.34;99411.69;125076;1091;22934;-67
2021/06/23 06:34:10;;;;;;;13.38;3.95;;;;;;;26.73;50.11;99404.16;124838;1093;114865;-66
2021/06/23 06:36:40;;;;;;;11.15;3.80;;;;;;;26.78;50.32;99411.45;124972;1093;22837;-65
2021/06/23 06:39:09;;;;;;;12.88;3.53;;;;;;;26.83;50.11;99399.98;124841;1091;114873;-66
2021/06/23 06:41:37;;;;;;;10.53;3.58;;;;;;;26.91;50.27;99405.33;129763;1093;23188;-69
2021/06/23 06:44:06;;;;;;;10.03;3.95;;;;;;;26.98;50.14;99411.08;129742;1092;23640;-69
2021/06/23 06:46:36;;;;;;;15.98;4.10;;;;;;;27.05;49.63;99402.83;129654;1093;114050;-68
2021/06/23 06:49:06;;;;;;;7.30;3.43;;;;;;;27.13;49.59;99388.97;129818;1092;22574;-68
2021/06/23 06:51:34;;;;;;;10.75;3.80;;;;;;;27.19;49.78;99393.89;129654;1093;114016;-67
2021/06/23 06:54:03;;;;;;;6.98;3.43;;;;;;;27.28;49.26;99390.84;129808;1093;22546;-67
2021/06/23 06:56:34;;;;;;;11.90;4.10;;;;;;;27.34;49.55;99392.97;126912;1093;22932;-62
2021/06/23 06:59:03;;;;;;;12.20;4.15;;;;;;;27.42;49.36;99399.48;129661;1093;114418;-63
2021/06/23 07:01:31;;;;;;;5.35;3.03;;;;;;;27.46;49.16;99401.17;129732;1093;22690;-62
2021/06/23 07:04:00;;;;;;;5.07;3.13;;;;;;;27.52;48.10;99393.28;129682;1093;113679;-63
2021/06/23 07:06:30;;;;;;;13.28;3.83;;;;;;;27.57;48.51;99395.77;129759;1092;23462;-61
2021/06/23 07:08:59;;;;;;;12.38;3.53;;;;;;;27.64;48.06;99395.09;129809;1092;22559;-62
2021/06/23 07:11:28;;;;;;;8.10;3.05;;;;;;;27.71;47.91;99398.80;129661;1093;114915;-62
2021/06/23 07:13:56;;;;;;;12.13;4.10;;;;;;;27.77;48.25;99399.30;129799;1092;22558;-63
2021/06/23 07:16:26;;;;;;;12.90;3.55;;;;;;;27.84;48.30;99407.02;129641;1090;114002;-63
2021/06/23 07:18:55;;;;;;;16.45;4.23;;;;;;;27.91;47.85;99415.52;129793;1092;22562;-63
2021/06/23 07:21:23;;;;;;;20.23;4.03;;;;;;;27.96;48.17;99416.02;129669;1093;114042;-63
2021/06/23 07:23:57;;;;;;;8.68;3.88;;;;;;;28.04;47.81;99430.92;129832;1092;22654;-63
2021/06/23 07:26:27;;;;;;;12.08;3.30;;;;;;;28.08;47.81;99426.19;129748;1093;22531;-63
2021/06/23 07:28:56;;;;;;;6.25;3.55;;;;;;;28.10;47.27;99430.23;129683;1093;114195;-62
2021/06/23 07:31:40;;;;;;;13.43;4.00;;;;;;;28.12;48.00;99422.27;129777;1093;22580;-63
2021/06/23 07:36:54;;;;;;;6.08;3.60;;;;;;;28.22;48.50;99432.03;129745;1093;22651;-63
2021/06/23 07:39:23;;;;;;;6.75;3.40;;;;;;;28.29;48.76;99425.70;129716;1093;114256;-63
2021/06/23 07:41:51;;;;;;;9.73;3.43;;;;;;;28.33;48.80;99427.38;129775;1093;22560;-63
2021/06/23 07:44:25;;;;;;;8.95;3.90;;;;;;;28.33;48.31;99424.58;129772;1092;22558;-63
2021/06/23 07:46:59;;;;;;;9.03;3.68;;;;;;;28.28;48.52;99412.91;129700;1092;114847;-63
2021/06/23 07:49:31;;;;;;;9.93;3.73;;;;;;;28.19;48.69;99415.98;129776;1093;23411;-62
2021/06/23 07:52:05;;;;;;;5.95;3.65;;;;;;;28.13;49.20;99409.07;129675;1093;114106;-63
2021/06/23 08:03:11;;;;;;;8.93;4.28;;;;;;;28.08;50.26;99406.58;129809;1093;23374;-63
2021/06/23 08:10:56;;;;;;;8.35;3.68;;;;;;;28.21;49.84;99419.21;129701;1092;113809;-67
2021/06/23 08:13:24;;;;;;;14.45;4.50;;;;;;;28.25;49.77;99416.47;129779;1093;22634;-68
2021/06/23 08:15:53;;;;;;;12.93;3.43;;;;;;;28.30;49.49;99416.92;129705;1093;114399;-68
2021/06/23 08:18:21;;;;;;;7.63;3.45;;;;;;;28.34;49.42;99420.59;129744;1093;22567;-68
2021/06/23 08:20:50;;;;;;;7.58;3.53;;;;;;;28.39;49.71;99419.47;129815;1091;22600;-68
2021/06/23 08:23:18;;;;;;;10.33;3.95;;;;;;;28.45;49.53;99431.95;129662;1093;113786;-68
2021/06/23 08:25:47;;;;;;;10.25;3.83;;;;;;;28.50;49.36;99424.02;129786;1093;22644;-68
2021/06/23 08:28:15;;;;;;;8.90;3.85;;;;;;;28.55;49.45;99433.30;129646;1092;114363;-68
2021/06/23 08:30:43;;;;;;;8.58;3.95;;;;;;;28.58;49.23;99436.13;129792;1093;22556;-67
2021/06/23 08:33:12;;;;;;;9.23;3.78;;;;;;;28.61;48.66;99421.34;129777;1092;22673;-67
2021/06/23 08:35:40;;;;;;;8.50;3.25;;;;;;;28.66;48.85;99425.82;128693;1093;113626;-61
2021/06/23 08:38:09;;;;;;;16.20;4.20;;;;;;;28.70;49.45;99424.69;129758;1092;24349;-62
2021/06/23 08:40:37;;;;;;;12.98;3.70;;;;;;;28.76;48.92;99425.95;129651;1093;114368;-62
2021/06/23 08:43:05;;;;;;;9.00;3.93;;;;;;;28.81;49.94;99428.45;129811;1093;22543;-63
2021/06/23 08:45:34;;;;;;;15.15;4.05;;;;;;;28.88;49.36;99430.52;129667;1093;113863;-62
2021/06/23 08:48:02;;;;;;;13.43;3.88;;;;;;;28.95;48.60;99430.61;129789;1092;22540;-62
2021/06/23 08:50:31;;;;;;;6.85;3.85;;;;;;;29.01;48.54;99423.45;129725;1093;23077;-63
2021/06/23 08:52:59;;;;;;;8.98;3.68;;;;;;;29.08;47.89;99429.16;129666;1096;113850;-63
2021/06/23 08:55:29;;;;;;;9.65;4.38;;;;;;;29.14;47.96;99424.80;129764;1093;22599;-63
2021/06/23 08:57:58;;;;;;;9.10;3.55;;;;;;;29.19;47.58;99418.84;129702;1092;113981;-63
2021/06/23 09:00:28;;;;;;;9.88;3.80;;;;;;;29.26;47.24;99420.94;129730;1093;22638;-63
2021/06/23 09:03:04;;;;;;;16.65;3.65;;;;;;;29.34;46.45;99416.98;129783;1092;23019;-63
2021/06/23 09:05:48;;;;;;;17.20;3.73;;;;;;;29.42;46.85;99412.30;128979;1093;114057;-67
2021/06/23 09:08:36;;;;;;;10.20;3.38;;;;;;;29.54;47.03;99412.00;125094;1093;22876;-67
2021/06/23 09:11:21;;;;;;;17.98;3.75;;;;;;;29.67;46.34;99404.89;129629;1093;113896;-67
2021/06/23 09:13:49;;;;;;;11.45;3.73;;;;;;;29.75;46.68;99406.55;129789;1093;22616;-68
2021/06/23 09:16:18;;;;;;;10.08;3.68;;;;;;;29.83;46.25;99401.80;129702;1093;114382;-68
2021/06/23 09:18:47;;;;;;;15.25;3.58;;;;;;;29.89;46.04;99405.84;129824;1093;22603;-68
2021/06/23 09:21:18;;;;;;;7.65;3.33;;;;;;;29.97;45.89;99409.56;129740;1092;22573;-67
2021/06/23 09:23:54;;;;;;;13.23;3.85;;;;;;;30.06;45.77;99413.63;129692;1093;113648;-69
2021/06/23 09:26:26;;;;;;;7.50;3.20;;;;;;;30.14;46.16;99406.06;129780;1093;22561;-68
2021/06/23 09:29:17;;;;;;;6.93;3.55;;;;;;;30.20;45.50;99407.28;129690;1093;114538;-68
2021/06/23 09:32:01;;;;;;;8.90;2.93;;;;;;;30.28;45.04;99411.77;129755;1093;22612;-68
2021/06/23 09:34:42;;;;;;;8.00;3.50;;;;;;;30.32;44.48;99411.77;129695;1093;114144;-68
2021/06/23 09:37:29;;;;;;;8.90;3.85;;;;;;;30.34;44.75;99410.17;129774;1093;22543;-63
2021/06/23 09:40:17;;;;;;;13.83;3.48;;;;;;;30.38;45.55;99415.83;129678;1096;113966;-63
2021/06/23 09:43:00;;;;;;;10.33;3.60;;;;;;;30.46;44.24;99415.45;129726;1093;22551;-63
2021/06/23 09:45:31;;;;;;;8.50;3.35;;;;;;;30.56;44.56;99428.82;129693;1092;114061;-63
2021/06/23 09:48:01;;;;;;;13.88;3.98;;;;;;;30.59;44.59;99435.64;129779;1093;22549;-62
2021/06/23 09:50:31;;;;;;;13.88;4.00;;;;;;;30.65;45.00;99438.89;129745;1093;22598;-63
2021/06/23 09:53:12;;;;;;;11.28;3.75;;;;;;;30.72;44.61;99436.13;129631;1092;113765;-63
2021/06/23 09:55:42;;;;;;;5.30;3.13;;;;;;;30.81;44.73;99440.17;129796;1093;23004;-62
2021/06/23 09:58:19;;;;;;;5.23;3.33;;;;;;;30.89;44.35;99424.11;129679;1092;114008;-63
2021/06/23 10:01:11;;;;;;;18.50;3.95;;;;;;;30.96;42.09;99426.95;129786;1092;22740;-63
2021/06/23 10:04:01;;;;;;;21.77;4.95;;;;;;;30.94;42.57;99443.43;129666;1093;113530;-63
2021/06/23 10:06:31;;;;;;;6.68;3.48;;;;;;;30.90;42.50;99426.53;129805;1093;22615;-63
2021/06/23 10:09:25;;;;;;;11.68;3.50;;;;;;;30.88;43.14;99428.93;129786;1092;22605;-63
2021/06/23 10:11:57;;;;;;;15.43;3.45;;;;;;;30.85;42.86;99428.94;129694;1093;114471;-63
2021/06/23 10:14:28;;;;;;;12.05;2.90;;;;;;;30.82;43.31;99426.91;129783;1093;22607;-63
2021/06/23 10:17:00;;;;;;;12.63;3.83;;;;;;;30.82;42.88;99430.53;129695;1093;113918;-68
2021/06/23 10:19:29;;;;;;;8.53;3.55;;;;;;;30.83;43.53;99431.34;129791;1092;23670;-68
2021/06/23 10:22:01;;;;;;;7.78;3.18;;;;;;;30.83;44.38;99431.34;129693;1093;113957;-67
2021/06/23 10:24:51;;;;;;;7.33;3.88;;;;;;;30.86;45.40;99436.17;129753;1093;22592;-68
2021/06/23 10:27:19;;;;;;;11.55;4.23;;;;;;;30.92;45.15;99429.75;129757;1093;22622;-68
2021/06/23 10:29:50;;;;;;;12.28;3.33;;;;;;;31.02;43.02;99438.65;129643;1093;114549;-68
2021/06/23 10:32:18;;;;;;;8.73;3.38;;;;;;;31.09;42.29;99433.83;129760;1093;22686;-68
2021/06/23 10:34:47;;;;;;;16.58;3.40;;;;;;;31.15;42.70;99421.02;129655;1092;113725;-68
2021/06/23 10:37:16;;;;;;;16.38;4.80;;;;;;;31.22;42.27;99425.84;129809;1093;23111;-68
2021/06/23 10:39:47;;;;;;;15.27;4.10;;;;;;;31.30;40.79;99426.68;129671;1093;114123;-69
2021/06/23 10:42:15;;;;;;;17.13;4.70;;;;;;;31.32;40.79;99425.05;129803;1092;22587;-69
2021/06/23 10:44:47;;;;;;;14.73;4.05;;;;;;;31.36;40.82;99427.88;129722;1093;22601;-69
2021/06/23 10:47:51;;;;;;;9.35;3.53;;;;;;;31.35;40.89;99438.34;125574;1094;114193;-63
2021/06/23 10:50:35;;;;;;;20.85;4.08;;;;;;;31.37;41.12;99433.11;129154;1095;23171;-63
2021/06/23 10:53:24;;;;;;;19.78;3.90;;;;;;;31.40;41.69;99431.52;129242;1096;115447;-63
2021/06/23 10:55:53;;;;;;;14.00;3.60;;;;;;;31.41;41.92;99425.48;129351;1095;23390;-64
2021/06/23 10:58:32;;;;;;;9.10;4.20;;;;;;;31.43;41.46;99425.09;129265;1096;114007;-64
2021/06/23 11:01:08;;;;;;;13.13;4.13;;;;;;;31.47;41.70;99423.86;129334;1096;22555;-63
2021/06/23 11:03:59;;;;;;;12.63;3.98;;;;;;;31.52;40.10;99429.11;129282;1096;115436;-63
2021/06/23 11:06:57;;;;;;;10.03;4.08;;;;;;;31.59;40.09;99422.69;129335;1096;23441;-64
2021/06/23 11:09:27;;;;;;;20.83;4.63;;;;;;;31.62;40.03;99428.30;129169;1095;22552;-63
2021/06/23 11:11:56;;;;;;;17.63;3.70;;;;;;;31.65;40.15;99432.36;129245;1096;114017;-63
2021/06/23 11:14:26;;;;;;;17.35;4.73;;;;;;;31.68;40.34;99431.56;129375;1096;22635;-63
2021/06/23 11:16:54;;;;;;;17.60;4.53;;;;;;;31.71;39.72;99427.95;125808;1096;114251;-63
2021/06/23 11:19:23;;;;;;;17.48;4.58;;;;;;;31.69;39.75;99427.55;129339;1096;23245;-62
2021/06/23 11:22:12;;;;;;;16.10;5.50;;;;;;;31.68;40.55;99428.75;129179;1095;114181;-63
2021/06/23 11:24:40;;;;;;;23.65;6.10;;;;;;;31.70;38.36;99420.70;129508;1093;22593;-64
2021/06/23 11:27:14;;;;;;;46.23;7.45;;;;;;;31.74;37.92;99429.94;129745;1093;22628;-63
2021/06/23 11:29:47;;;;;;;31.95;6.75;;;;;;;31.79;36.60;99440.02;129698;1092;113408;-64
2021/06/23 11:32:24;;;;;;;19.00;6.53;;;;;;;31.79;37.11;99442.83;129764;1093;22548;-64
2021/06/23 11:34:53;;;;;;;36.85;6.65;;;;;;;31.80;37.63;99442.43;129688;1092;114457;-63
2021/06/23 11:37:24;;;;;;;26.93;6.78;;;;;;;31.80;37.34;99447.27;129731;1093;22593;-64
2021/06/23 11:40:06;;;;;;;33.58;7.25;;;;;;;31.83;37.54;99447.27;129730;1093;114776;-64
2021/06/23 11:42:35;;;;;;;19.65;5.40;;;;;;;31.89;37.09;99437.18;129742;1093;22581;-63
2021/06/23 11:45:05;;;;;;;26.13;5.68;;;;;;;31.92;37.92;99438.39;129809;1092;22677;-64
2021/06/23 11:47:40;;;;;;;29.53;6.75;;;;;;;31.94;37.98;99439.61;129698;1092;114930;-64
2021/06/23 11:50:09;;;;;;;24.08;5.88;;;;;;;31.95;38.80;99446.85;129807;1093;22658;-63
2021/06/23 11:52:39;;;;;;;27.20;8.83;;;;;;;31.99;38.67;99446.86;129639;1093;114129;-64
2021/06/23 11:55:09;;;;;;;22.65;6.93;;;;;;;32.00;37.82;99450.48;129806;1093;22564;-64
2021/06/23 11:57:37;;;;;;;27.55;6.48;;;;;;;32.03;38.35;99446.86;129664;1092;114437;-63
2021/06/23 12:00:06;;;;;;;45.50;7.30;;;;;;;32.03;38.35;99441.23;129779;1093;22533;-64